Time;durP1;ratioP1;P1;durP2;ratioP2;P2;SDS_P1;SDS_P2;PMS_P1;PMS_P2;Temp;Humidity;BMP_temperature;BMP_pressure;BME280_temperature;BME280_humidity;BME280_pressure;Samples;Min_cycle;Max_cycle;Signal;HPM_P1;HPM_P2
2023/01/21 00:01:49;;;;;;;41.22;24.95;;;;;;;;;;4891501;28;99389;-75
2023/01/21 00:04:15;;;;;;;34.85;19.25;;;;;;;;;;4890981;28;100004;-76
2023/01/21 00:06:42;;;;;;;46.72;24.25;;;;;;;;;;4891901;28;98922;-76
2023/01/21 00:09:08;;;;;;;35.80;20.98;;;;;;;;;;4890276;28;98819;-76
2023/01/21 00:11:35;;;;;;;45.08;26.08;;;;;;;;;;4891310;28;99024;-76
2023/01/21 00:14:01;;;;;;;30.00;18.58;;;;;;;;;;4891056;28;98496;-76
2023/01/21 00:16:27;;;;;;;32.33;19.90;;;;;;;;;;4891113;28;98571;-76
2023/01/21 00:18:55;;;;;;;48.80;27.67;;;;;;;;;;4890554;28;98948;-76
2023/01/21 00:21:21;;;;;;;57.80;30.02;;;;;;;;;;4894701;28;98595;-76
2023/01/21 00:23:47;;;;;;;44.65;24.95;;;;;;;;;;4890208;28;100345;-76
2023/01/21 00:26:14;;;;;;;43.55;24.13;;;;;;;;;;4891472;28;98306;-76
2023/01/21 00:28:42;;;;;;;48.08;27.05;;;;;;;;;;4891604;28;98842;-76
2023/01/21 00:31:09;;;;;;;44.83;24.92;;;;;;;;;;4890118;28;99270;-76
2023/01/21 00:33:36;;;;;;;40.85;22.98;;;;;;;;;;4890249;28;98725;-76
2023/01/21 00:36:04;;;;;;;41.70;22.58;;;;;;;;;;4891182;28;99784;-77
2023/01/21 00:38:31;;;;;;;47.28;24.10;;;;;;;;;;4890579;28;100015;-77
2023/01/21 00:41:01;;;;;;;50.42;25.02;;;;;;;;;;4890919;28;98276;-77
2023/01/21 00:43:28;;;;;;;51.92;26.65;;;;;;;;;;4893655;28;100096;-76
2023/01/21 00:45:54;;;;;;;41.28;23.67;;;;;;;;;;4890908;28;98261;-76
2023/01/21 00:48:21;;;;;;;44.78;24.33;;;;;;;;;;4891177;28;100339;-76
2023/01/21 00:50:47;;;;;;;36.15;17.30;;;;;;;;;;4890464;28;100146;-76
2023/01/21 00:53:13;;;;;;;35.60;20.85;;;;;;;;;;4891132;28;98408;-76
2023/01/21 00:55:40;;;;;;;53.85;25.50;;;;;;;;;;4891174;28;98774;-77
2023/01/21 00:58:06;;;;;;;45.00;23.45;;;;;;;;;;4889506;28;100812;-76
2023/01/21 01:00:33;;;;;;;45.13;23.27;;;;;;;;;;4891147;28;98394;-76
2023/01/21 01:02:59;;;;;;;43.70;25.25;;;;;;;;;;4891039;28;99761;-76
2023/01/21 01:05:26;;;;;;;37.83;22.65;;;;;;;;;;4893525;28;100961;-76
2023/01/21 01:07:52;;;;;;;32.67;20.00;;;;;;;;;;4890865;28;99961;-75
2023/01/21 01:10:18;;;;;;;39.80;17.90;;;;;;;;;;4889917;28;99213;-75
2023/01/21 01:12:45;;;;;;;39.88;23.60;;;;;;;;;;4889799;28;99635;-76
2023/01/21 01:15:11;;;;;;;42.60;25.10;;;;;;;;;;4890870;28;99056;-77
2023/01/21 01:17:37;;;;;;;45.53;22.33;;;;;;;;;;4890784;28;99000;-76
2023/01/21 01:20:04;;;;;;;25.02;15.38;;;;;;;;;;4889612;28;98298;-76
2023/01/21 01:22:30;;;;;;;48.20;23.95;;;;;;;;;;4890016;28;99561;-77
2023/01/21 01:24:57;;;;;;;29.05;17.27;;;;;;;;;;4889050;28;99095;-76
2023/01/21 01:27:23;;;;;;;33.80;18.70;;;;;;;;;;4892993;28;98377;-75
2023/01/21 01:29:49;;;;;;;32.83;20.30;;;;;;;;;;4890340;28;100930;-75
2023/01/21 01:32:16;;;;;;;37.25;20.85;;;;;;;;;;4890259;28;98314;-76
2023/01/21 01:34:43;;;;;;;44.28;22.38;;;;;;;;;;4889913;28;99947;-76
2023/01/21 01:37:10;;;;;;;35.97;20.70;;;;;;;;;;4889910;28;100309;-76
2023/01/21 01:39:36;;;;;;;47.47;24.25;;;;;;;;;;4890985;28;98308;-77
2023/01/21 01:42:02;;;;;;;50.20;24.55;;;;;;;;;;4890003;28;99556;-76
2023/01/21 01:44:53;;;;;;;38.47;21.90;;;;;;;;;;4890003;28;99933;-76
2023/01/21 01:47:20;;;;;;;47.45;25.45;;;;;;;;;;4889084;28;98196;-75
2023/01/21 01:49:47;;;;;;;38.08;22.23;;;;;;;;;;4893511;28;99318;-75
2023/01/21 01:52:14;;;;;;;34.67;19.88;;;;;;;;;;4890200;28;98298;-76
2023/01/21 01:54:45;;;;;;;34.42;17.30;;;;;;;;;;4889116;28;99539;-76
2023/01/21 01:57:13;;;;;;;48.90;25.52;;;;;;;;;;4889458;28;99926;-76
2023/01/21 01:59:40;;;;;;;46.13;23.55;;;;;;;;;;4890008;28;98362;-76
2023/01/21 02:02:09;;;;;;;48.30;21.05;;;;;;;;;;4889505;28;98920;-76
2023/01/21 02:04:41;;;;;;;34.13;18.70;;;;;;;;;;4890237;28;100193;-76
2023/01/21 02:07:07;;;;;;;43.50;24.27;;;;;;;;;;4884298;28;98289;-76
2023/01/21 02:09:34;;;;;;;31.95;17.92;;;;;;;;;;4892463;28;99563;-76
2023/01/21 02:12:01;;;;;;;45.47;24.38;;;;;;;;;;4889025;28;98874;-76
2023/01/21 02:14:29;;;;;;;44.30;23.45;;;;;;;;;;4889865;28;100009;-76
2023/01/21 02:17:05;;;;;;;32.33;16.38;;;;;;;;;;4888940;28;100499;-76
2023/01/21 02:19:40;;;;;;;45.88;25.33;;;;;;;;;;4889652;28;98275;-76
2023/01/21 02:22:18;;;;;;;51.42;25.15;;;;;;;;;;4890777;28;99784;-76
2023/01/21 02:25:04;;;;;;;38.88;21.10;;;;;;;;;;4892962;28;100252;-76
2023/01/21 02:27:39;;;;;;;32.03;18.52;;;;;;;;;;4893122;28;98566;-76
2023/01/21 02:30:34;;;;;;;51.13;25.50;;;;;;;;;;4892651;28;98591;-76
2023/01/21 02:33:19;;;;;;;47.25;23.70;;;;;;;;;;4891531;28;99215;-76
2023/01/21 02:35:53;;;;;;;42.65;24.55;;;;;;;;;;4894254;28;98839;-76
2023/01/21 02:38:33;;;;;;;46.72;26.25;;;;;;;;;;4893773;28;100474;-77
2023/01/21 02:41:18;;;;;;;43.15;22.77;;;;;;;;;;4893030;28;98368;-76
2023/01/21 02:43:55;;;;;;;38.20;21.08;;;;;;;;;;4892329;28;99901;-77
2023/01/21 02:46:25;;;;;;;49.33;25.88;;;;;;;;;;4893004;28;100947;-75
2023/01/21 02:49:12;;;;;;;50.88;26.77;;;;;;;;;;4892541;28;99676;-76
2023/01/21 02:51:38;;;;;;;41.80;23.60;;;;;;;;;;4879991;28;99510;-76
2023/01/21 02:54:23;;;;;;;41.33;22.15;;;;;;;;;;4892150;28;99185;-76
2023/01/21 02:56:49;;;;;;;45.40;22.55;;;;;;;;;;4895892;28;98279;-76
2023/01/21 02:59:16;;;;;;;36.95;21.75;;;;;;;;;;4891454;28;100432;-76
2023/01/21 03:01:49;;;;;;;52.08;28.10;;;;;;;;;;4892646;28;98276;-76
2023/01/21 03:04:28;;;;;;;47.30;26.52;;;;;;;;;;4891320;28;99620;-75
2023/01/21 03:07:01;;;;;;;41.00;20.35;;;;;;;;;;4892043;28;99985;-76
2023/01/21 03:09:29;;;;;;;47.00;23.98;;;;;;;;;;4892892;28;99534;-76
2023/01/21 03:11:55;;;;;;;40.55;23.27;;;;;;;;;;4891442;28;98563;-76
2023/01/21 03:17:37;;;;;;;47.53;24.70;;;;;;;;;;4894056;28;98321;-76
2023/01/21 03:20:03;;;;;;;52.40;25.23;;;;;;;;;;4885922;28;98231;-76
2023/01/21 03:22:32;;;;;;;52.47;25.95;;;;;;;;;;4892905;28;98295;-76
2023/01/21 03:25:01;;;;;;;51.08;25.42;;;;;;;;;;4892552;28;98753;-76
2023/01/21 03:27:29;;;;;;;53.63;28.42;;;;;;;;;;4891365;28;100119;-76
2023/01/21 03:29:58;;;;;;;54.28;25.98;;;;;;;;;;4889612;28;98735;-76
2023/01/21 03:32:25;;;;;;;46.50;25.52;;;;;;;;;;4891279;28;98653;-75
2023/01/21 03:34:53;;;;;;;47.88;24.50;;;;;;;;;;4891726;28;99516;-75
2023/01/21 03:37:20;;;;;;;56.05;28.83;;;;;;;;;;4892340;28;98240;-76
2023/01/21 03:39:50;;;;;;;56.95;25.83;;;;;;;;;;4891633;28;98696;-76
2023/01/21 03:42:17;;;;;;;52.55;27.33;;;;;;;;;;4895466;28;99955;-75
2023/01/21 03:44:44;;;;;;;54.92;27.15;;;;;;;;;;4892259;28;99544;-76
2023/01/21 03:47:16;;;;;;;51.22;26.20;;;;;;;;;;4890279;28;99956;-76
2023/01/21 03:49:46;;;;;;;53.08;27.08;;;;;;;;;;4892071;28;98228;-75
2023/01/21 03:52:14;;;;;;;56.28;26.52;;;;;;;;;;4892181;28;99421;-75
2023/01/21 03:54:40;;;;;;;51.88;27.05;;;;;;;;;;4890547;28;100132;-76
2023/01/21 03:57:06;;;;;;;52.55;27.25;;;;;;;;;;4891385;28;98316;-75
2023/01/21 03:59:33;;;;;;;53.30;27.77;;;;;;;;;;4892201;28;98613;-75
2023/01/21 04:01:59;;;;;;;57.28;27.75;;;;;;;;;;4890726;28;99991;-75
2023/01/21 04:04:25;;;;;;;59.70;27.70;;;;;;;;;;4895779;28;98297;-76
2023/01/21 04:06:52;;;;;;;59.35;27.88;;;;;;;;;;4891563;28;99212;-76
2023/01/21 04:09:18;;;;;;;53.67;26.58;;;;;;;;;;4891438;28;99016;-76
2023/01/21 04:11:45;;;;;;;57.88;27.60;;;;;;;;;;4892169;28;100047;-76
2023/01/21 04:14:11;;;;;;;56.05;27.98;;;;;;;;;;4891234;28;99198;-76
2023/01/21 04:16:37;;;;;;;61.72;28.73;;;;;;;;;;4891533;28;98371;-76
2023/01/21 04:19:04;;;;;;;61.13;29.10;;;;;;;;;;4890926;28;98787;-76
2023/01/21 04:21:30;;;;;;;56.15;27.13;;;;;;;;;;4891004;28;99167;-75
2023/01/21 04:23:56;;;;;;;64.60;28.52;;;;;;;;;;4894876;28;98260;-75
2023/01/21 04:26:23;;;;;;;63.53;28.95;;;;;;;;;;4891311;28;99971;-76
2023/01/21 04:28:49;;;;;;;67.32;28.90;;;;;;;;;;4890339;28;98267;-75
2023/01/21 04:31:15;;;;;;;62.95;28.20;;;;;;;;;;4891369;28;99517;-75
2023/01/21 04:33:42;;;;;;;63.10;28.42;;;;;;;;;;4891279;28;100047;-75
2023/01/21 04:36:08;;;;;;;59.13;26.45;;;;;;;;;;4890778;28;98264;-75
2023/01/21 04:38:35;;;;;;;66.93;29.92;;;;;;;;;;4891628;28;98537;-76
2023/01/21 04:41:01;;;;;;;59.55;28.73;;;;;;;;;;4890727;28;100044;-75
2023/01/21 04:43:28;;;;;;;60.17;28.33;;;;;;;;;;4889997;28;98443;-76
2023/01/21 04:45:54;;;;;;;59.00;28.73;;;;;;;;;;4893597;28;98690;-76
2023/01/21 04:48:20;;;;;;;68.63;28.10;;;;;;;;;;4891668;28;98314;-76
2023/01/21 04:50:47;;;;;;;62.97;28.40;;;;;;;;;;4891601;28;98918;-74
2023/01/21 04:53:13;;;;;;;63.67;30.23;;;;;;;;;;4891199;28;100394;-76
2023/01/21 04:55:39;;;;;;;67.38;28.75;;;;;;;;;;4890880;28;99298;-76
2023/01/21 04:58:06;;;;;;;67.03;29.77;;;;;;;;;;4889886;28;99478;-76
2023/01/21 05:00:32;;;;;;;66.07;29.30;;;;;;;;;;4891173;28;100038;-75
2023/01/21 05:02:59;;;;;;;69.38;31.30;;;;;;;;;;4890603;28;98260;-75
2023/01/21 05:05:25;;;;;;;64.25;29.95;;;;;;;;;;4890126;28;99330;-75
2023/01/21 05:07:52;;;;;;;63.85;28.30;;;;;;;;;;4892811;28;100154;-76
2023/01/21 05:10:19;;;;;;;67.45;30.83;;;;;;;;;;4885441;28;99710;-76
2023/01/21 05:12:47;;;;;;;73.53;29.65;;;;;;;;;;4889969;28;100061;-76
2023/01/21 05:15:13;;;;;;;74.75;31.70;;;;;;;;;;4890105;28;98460;-75
2023/01/21 05:17:40;;;;;;;76.15;30.45;;;;;;;;;;4890829;28;99658;-75
2023/01/21 05:20:06;;;;;;;73.00;30.98;;;;;;;;;;4890374;28;99912;-75
2023/01/21 05:22:32;;;;;;;71.47;30.65;;;;;;;;;;4890350;28;98280;-76
2023/01/21 05:24:59;;;;;;;68.82;29.88;;;;;;;;;;4890065;28;99425;-76
2023/01/21 05:27:26;;;;;;;66.35;29.77;;;;;;;;;;4890251;28;100139;-76
2023/01/21 05:29:52;;;;;;;63.78;28.73;;;;;;;;;;4893623;28;98355;-76
2023/01/21 05:32:19;;;;;;;82.95;32.40;;;;;;;;;;4883696;28;99206;-76
2023/01/21 05:34:45;;;;;;;68.25;29.77;;;;;;;;;;4890548;28;98279;-76
2023/01/21 05:37:12;;;;;;;77.05;33.17;;;;;;;;;;4890600;28;98919;-74
2023/01/21 05:39:38;;;;;;;75.18;31.83;;;;;;;;;;4889020;28;99342;-75
2023/01/21 05:42:05;;;;;;;82.18;33.20;;;;;;;;;;4890309;28;98705;-75
2023/01/21 05:44:31;;;;;;;82.82;33.67;;;;;;;;;;4890576;28;99700;-75
2023/01/21 05:46:58;;;;;;;75.85;30.85;;;;;;;;;;4888280;28;99970;-75
2023/01/21 05:49:24;;;;;;;63.00;29.88;;;;;;;;;;4890957;28;98288;-75
2023/01/21 05:51:50;;;;;;;71.35;29.52;;;;;;;;;;4893352;28;98625;-75
2023/01/21 05:54:16;;;;;;;74.28;28.73;;;;;;;;;;4889492;28;98520;-75
2023/01/21 05:56:43;;;;;;;89.88;34.15;;;;;;;;;;4888624;28;99469;-74
2023/01/21 05:59:09;;;;;;;85.03;32.60;;;;;;;;;;4889915;28;99115;-74
2023/01/21 06:01:36;;;;;;;88.88;32.15;;;;;;;;;;4889518;28;98292;-74
2023/01/21 06:04:02;;;;;;;96.78;31.77;;;;;;;;;;4889940;28;98536;-74
2023/01/21 06:06:28;;;;;;;106.32;33.15;;;;;;;;;;4889651;28;100022;-74
2023/01/21 06:08:55;;;;;;;127.38;27.27;;;;;;;;;;4886271;28;98379;-74
2023/01/21 06:11:21;;;;;;;167.75;38.70;;;;;;;;;;4887239;28;98601;-74
2023/01/21 06:13:48;;;;;;;195.32;42.60;;;;;;;;;;4892274;28;98214;-74
2023/01/21 06:16:14;;;;;;;192.00;39.15;;;;;;;;;;4887377;28;99488;-74
2023/01/21 06:18:40;;;;;;;112.78;30.80;;;;;;;;;;4887763;28;99091;-74
2023/01/21 06:21:07;;;;;;;112.50;36.33;;;;;;;;;;4886682;28;98382;-77
2023/01/21 06:23:33;;;;;;;103.03;34.60;;;;;;;;;;4880636;28;99402;-74
2023/01/21 06:26:00;;;;;;;97.13;34.60;;;;;;;;;;4887828;28;99415;-76
2023/01/21 06:28:26;;;;;;;104.47;34.95;;;;;;;;;;4887397;28;98990;-77
2023/01/21 06:30:53;;;;;;;42.80;18.73;;;;;;;;;;4889652;28;99547;-76
2023/01/21 06:33:19;;;;;;;88.70;32.53;;;;;;;;;;4893298;28;100138;-77
2023/01/21 06:35:46;;;;;;;50.42;21.27;;;;;;;;;;4889521;28;99658;-78
2023/01/21 06:38:12;;;;;;;88.53;29.35;;;;;;;;;;4890303;28;99120;-77
2023/01/21 06:40:39;;;;;;;140.32;32.42;;;;;;;;;;4890387;28;98553;-76
2023/01/21 06:43:05;;;;;;;87.95;25.65;;;;;;;;;;4889173;28;100065;-77
2023/01/21 06:45:32;;;;;;;100.03;29.38;;;;;;;;;;4888944;28;100308;-77
2023/01/21 06:47:58;;;;;;;103.78;33.13;;;;;;;;;;4889758;28;98401;-77
2023/01/21 06:50:24;;;;;;;96.00;32.92;;;;;;;;;;4903821;28;98738;-77
2023/01/21 06:52:51;;;;;;;77.10;25.90;;;;;;;;;;4889667;28;100203;-77
2023/01/21 06:55:17;;;;;;;155.02;39.22;;;;;;;;;;4893007;28;98284;-77
2023/01/21 06:57:43;;;;;;;129.43;36.00;;;;;;;;;;4888679;28;100797;-76
2023/01/21 07:00:10;;;;;;;135.63;36.95;;;;;;;;;;4889754;28;98239;-77
2023/01/21 07:02:37;;;;;;;105.28;36.20;;;;;;;;;;4890630;28;99435;-77
2023/01/21 07:05:04;;;;;;;156.35;38.38;;;;;;;;;;4888317;28;100076;-77
2023/01/21 07:07:30;;;;;;;137.85;36.20;;;;;;;;;;4890039;28;98787;-77
2023/01/21 07:09:56;;;;;;;134.95;35.47;;;;;;;;;;4891967;28;99486;-77
2023/01/21 07:12:23;;;;;;;147.88;40.08;;;;;;;;;;4892434;28;100058;-77
2023/01/21 07:14:49;;;;;;;190.82;42.83;;;;;;;;;;4892789;28;98260;-76
2023/01/21 07:17:16;;;;;;;145.93;38.45;;;;;;;;;;4895290;28;98653;-77
2023/01/21 07:19:42;;;;;;;140.13;38.15;;;;;;;;;;4892809;28;98278;-77
2023/01/21 07:22:08;;;;;;;146.02;37.35;;;;;;;;;;4892585;28;99484;-77
2023/01/21 07:24:35;;;;;;;215.05;40.60;;;;;;;;;;4885853;28;100731;-77
2023/01/21 07:27:01;;;;;;;275.83;41.35;;;;;;;;;;4892616;28;98312;-77
2023/01/21 07:29:28;;;;;;;318.83;42.97;;;;;;;;;;4892897;28;99350;-75
2023/01/21 07:31:54;;;;;;;404.30;49.13;;;;;;;;;;4891184;28;100114;-76
2023/01/21 07:34:21;;;;;;;214.73;31.17;;;;;;;;;;4891144;28;98449;-76
2023/01/21 07:36:47;;;;;;;203.10;40.00;;;;;;;;;;4892361;28;98776;-76
2023/01/21 07:39:13;;;;;;;438.58;46.65;;;;;;;;;;4894314;28;100075;-76
2023/01/21 07:41:40;;;;;;;206.32;36.20;;;;;;;;;;4891956;28;99381;-75
2023/01/21 07:44:10;;;;;;;236.15;39.58;;;;;;;;;;4885711;28;101774;-77
2023/01/21 07:46:36;;;;;;;153.93;37.90;;;;;;;;;;4891125;28;98382;-76
2023/01/21 07:49:03;;;;;;;216.32;29.70;;;;;;;;;;4890868;28;101404;-76
2023/01/21 07:51:29;;;;;;;288.13;42.08;;;;;;;;;;4891756;28;100143;-77
2023/01/21 07:53:55;;;;;;;323.17;41.65;;;;;;;;;;4890955;28;98300;-76
2023/01/21 07:56:23;;;;;;;289.08;39.38;;;;;;;;;;4891415;28;99702;-76
2023/01/21 07:58:52;;;;;;;175.38;30.13;;;;;;;;;;4890673;28;100163;-77
2023/01/21 08:01:19;;;;;;;196.55;39.92;;;;;;;;;;4893778;28;98327;-74
2023/01/21 08:03:45;;;;;;;165.88;37.40;;;;;;;;;;4891565;28;100912;-77
2023/01/21 08:06:11;;;;;;;261.60;35.45;;;;;;;;;;4891835;28;98414;-77
2023/01/21 08:08:38;;;;;;;183.40;38.25;;;;;;;;;;4891065;28;99375;-77
2023/01/21 08:11:04;;;;;;;122.90;33.80;;;;;;;;;;4891416;28;99326;-77
2023/01/21 08:13:30;;;;;;;154.25;37.47;;;;;;;;;;4891061;28;98101;-76
2023/01/21 08:15:57;;;;;;;107.50;36.08;;;;;;;;;;4891400;28;99548;-77
2023/01/21 08:18:24;;;;;;;135.07;38.65;;;;;;;;;;4891744;28;98993;-76
2023/01/21 08:20:57;;;;;;;149.43;40.22;;;;;;;;;;4894164;28;98523;-77
2023/01/21 08:23:23;;;;;;;;;;;;;;;;;;4891170;28;99172;-77
2023/01/21 08:25:49;;;;;;;108.65;36.17;;;;;;;;;;4891420;28;126289;-77
2023/01/21 08:28:16;;;;;;;143.70;40.28;;;;;;;;;;4890398;28;99537;-77
2023/01/21 08:30:42;;;;;;;146.15;38.33;;;;;;;;;;4889932;28;100037;-77
2023/01/21 08:33:09;;;;;;;143.07;50.45;;;;;;;;;;4891363;28;98348;-77
2023/01/21 08:35:35;;;;;;;123.75;41.85;;;;;;;;;;4895458;28;98507;-78
2023/01/21 08:38:01;;;;;;;136.95;47.97;;;;;;;;;;4900561;28;99981;-78
2023/01/21 08:40:28;;;;;;;129.02;44.30;;;;;;;;;;4897582;28;98198;-77
2023/01/21 08:42:58;;;;;;;110.03;42.33;;;;;;;;;;4893092;28;99617;-77
2023/01/21 08:45:24;;;;;;;156.77;48.85;;;;;;;;;;4891932;28;98431;-78
2023/01/21 08:47:51;;;;;;;126.38;46.75;;;;;;;;;;4890325;28;100223;-76
2023/01/21 08:50:17;;;;;;;92.47;38.50;;;;;;;;;;4890181;28;100275;-77
2023/01/21 08:52:53;;;;;;;119.30;45.05;;;;;;;;;;4890605;28;98845;-77
2023/01/21 08:55:20;;;;;;;113.07;39.47;;;;;;;;;;4891406;28;98784;-77
2023/01/21 08:57:52;;;;;;;122.75;40.53;;;;;;;;;;4889601;28;99167;-78
2023/01/21 09:00:19;;;;;;;111.13;41.50;;;;;;;;;;4891001;28;98257;-76
2023/01/21 09:02:45;;;;;;;101.63;39.28;;;;;;;;;;4888848;28;98681;-75
2023/01/21 09:05:12;;;;;;;95.25;38.75;;;;;;;;;;4893207;28;100107;-75
2023/01/21 09:07:38;;;;;;;121.13;39.22;;;;;;;;;;4890603;28;99555;-77
2023/01/21 09:10:05;;;;;;;106.00;45.35;;;;;;;;;;4890340;28;99487;-78
2023/01/21 09:12:32;;;;;;;111.68;43.05;;;;;;;;;;4889703;28;98303;-78
2023/01/21 09:14:58;;;;;;;97.07;37.33;;;;;;;;;;4891567;28;99730;-77
2023/01/21 09:17:26;;;;;;;103.93;40.05;;;;;;;;;;4889452;28;99881;-77
2023/01/21 09:19:52;;;;;;;102.68;38.60;;;;;;;;;;4890440;28;98515;-78
2023/01/21 09:22:20;;;;;;;95.50;36.75;;;;;;;;;;4891097;28;99959;-77
2023/01/21 09:24:48;;;;;;;111.35;41.17;;;;;;;;;;4889607;28;100441;-77
2023/01/21 09:27:14;;;;;;;100.72;39.05;;;;;;;;;;4892569;28;99958;-80
2023/01/21 09:29:40;;;;;;;91.85;37.28;;;;;;;;;;4886370;28;100021;-77
2023/01/21 09:32:07;;;;;;;96.28;38.83;;;;;;;;;;4886460;28;99959;-77
2023/01/21 09:34:33;;;;;;;104.13;40.20;;;;;;;;;;4889419;28;98720;-77
2023/01/21 09:37:01;;;;;;;99.55;39.35;;;;;;;;;;4886637;28;104010;-78
2023/01/21 09:39:28;;;;;;;102.13;39.58;;;;;;;;;;4887762;28;99556;-77
2023/01/21 09:41:55;;;;;;;93.10;37.20;;;;;;;;;;4889845;28;100193;-77
2023/01/21 09:44:26;;;;;;;89.00;37.08;;;;;;;;;;4889916;28;99536;-79
2023/01/21 09:46:55;;;;;;;102.50;39.20;;;;;;;;;;4887091;28;99077;-78
2023/01/21 09:49:25;;;;;;;102.88;39.75;;;;;;;;;;4892459;28;101560;-78
2023/01/21 09:52:01;;;;;;;95.60;39.60;;;;;;;;;;4888933;28;99977;-79
2023/01/21 09:54:29;;;;;;;88.78;37.17;;;;;;;;;;4890343;28;99909;-78
2023/01/21 09:56:56;;;;;;;88.13;37.28;;;;;;;;;;4887900;28;100186;-77
2023/01/21 09:59:32;;;;;;;97.57;39.47;;;;;;;;;;4888464;28;99719;-78
2023/01/21 10:02:04;;;;;;;95.32;39.95;;;;;;;;;;4885973;28;99489;-79
2023/01/21 10:04:31;;;;;;;91.82;36.45;;;;;;;;;;4887331;28;99038;-79
2023/01/21 10:07:06;;;;;;;90.25;38.47;;;;;;;;;;4888218;28;98735;-78
2023/01/21 10:09:47;;;;;;;79.65;35.50;;;;;;;;;;4885868;28;100122;-78
2023/01/21 10:12:22;;;;;;;84.97;36.90;;;;;;;;;;4891774;28;98914;-78
2023/01/21 10:14:48;;;;;;;81.38;35.28;;;;;;;;;;4888779;28;99827;-79
2023/01/21 10:17:50;;;;;;;77.43;38.25;;;;;;;;;;4888593;28;100101;-78
2023/01/21 10:20:22;;;;;;;78.07;34.08;;;;;;;;;;4856717;28;98460;-79
2023/01/21 10:23:05;;;;;;;68.85;32.42;;;;;;;;;;4889504;28;100005;-79
2023/01/21 10:25:32;;;;;;;;;;;;;;;;;;4887174;28;99222;-79
2023/01/21 10:28:02;;;;;;;68.85;31.52;;;;;;;;;;4885790;28;123876;-78
2023/01/21 10:30:29;;;;;;;72.78;31.38;;;;;;;;;;4889668;28;99458;-78
2023/01/21 10:32:55;;;;;;;64.47;31.58;;;;;;;;;;4892271;28;100567;-79
2023/01/21 10:35:43;;;;;;;76.03;30.52;;;;;;;;;;4887244;28;100226;-79
2023/01/21 10:38:21;;;;;;;79.43;32.55;;;;;;;;;;4886823;28;99867;-78
2023/01/21 10:40:54;;;;;;;71.80;30.58;;;;;;;;;;4883803;28;98718;-80
2023/01/21 10:43:39;;;;;;;66.20;31.63;;;;;;;;;;4889503;28;98846;-78
2023/01/21 10:46:09;;;;;;;65.60;28.58;;;;;;;;;;4892526;28;98852;-79
2023/01/21 10:48:49;;;;;;;57.88;28.20;;;;;;;;;;4889731;28;98930;-79
2023/01/21 10:51:19;;;;;;;67.05;31.80;;;;;;;;;;4890287;28;101284;-80
2023/01/21 10:54:04;;;;;;;62.33;30.50;;;;;;;;;;4891553;28;100689;-79
2023/01/21 10:56:54;;;;;;;58.08;27.92;;;;;;;;;;4895311;28;98383;-79
2023/01/21 10:59:21;;;;;;;73.85;37.20;;;;;;;;;;4893128;28;99268;-79
2023/01/21 11:01:49;;;;;;;68.65;31.02;;;;;;;;;;4890908;28;98293;-79
2023/01/21 11:04:20;;;;;;;70.53;30.77;;;;;;;;;;4892423;28;100160;-79
2023/01/21 11:06:51;;;;;;;69.40;33.63;;;;;;;;;;4890009;28;99081;-78
2023/01/21 11:09:17;;;;;;;71.85;36.85;;;;;;;;;;4892791;28;98208;-79
2023/01/21 11:11:45;;;;;;;60.00;31.80;;;;;;;;;;4892064;28;100758;-80
2023/01/21 11:14:11;;;;;;;80.38;39.88;;;;;;;;;;4892984;28;100443;-80
2023/01/21 11:16:38;;;;;;;69.63;33.58;;;;;;;;;;4891077;28;98381;-79
2023/01/21 11:19:05;;;;;;;79.90;34.28;;;;;;;;;;4895027;28;99769;-79
2023/01/21 11:21:32;;;;;;;79.25;37.45;;;;;;;;;;4890799;28;98311;-79
2023/01/21 11:23:59;;;;;;;88.07;40.50;;;;;;;;;;4891309;28;100147;-78
2023/01/21 11:26:35;;;;;;;87.65;44.63;;;;;;;;;;4891553;28;100249;-80
2023/01/21 11:29:11;;;;;;;66.05;30.70;;;;;;;;;;4890672;28;99023;-80
2023/01/21 11:31:38;;;;;;;60.78;30.63;;;;;;;;;;4890790;28;99461;-78
2023/01/21 11:34:09;;;;;;;74.07;30.50;;;;;;;;;;4890544;28;99159;-78
2023/01/21 11:36:35;;;;;;;71.18;36.47;;;;;;;;;;4890206;28;99304;-77
2023/01/21 11:39:03;;;;;;;65.70;34.22;;;;;;;;;;4888815;28;99456;-78
2023/01/21 11:41:30;;;;;;;53.08;22.35;;;;;;;;;;4894894;28;98988;-80
2023/01/21 11:44:07;;;;;;;62.30;32.20;;;;;;;;;;4891441;28;99564;-80
2023/01/21 11:46:37;;;;;;;68.88;31.35;;;;;;;;;;4891642;28;99027;-79
2023/01/21 11:49:06;;;;;;;70.57;31.50;;;;;;;;;;4890651;28;98472;-80
2023/01/21 11:51:40;;;;;;;65.95;30.60;;;;;;;;;;4890180;28;100497;-79
2023/01/21 11:54:07;;;;;;;57.05;29.45;;;;;;;;;;4891344;28;98911;-79
2023/01/21 11:56:35;;;;;;;67.70;34.05;;;;;;;;;;4886257;28;98484;-80
2023/01/21 11:59:09;;;;;;;59.97;28.65;;;;;;;;;;4891361;28;98857;-79
2023/01/21 12:01:36;;;;;;;72.70;33.22;;;;;;;;;;4891861;28;100259;-80
2023/01/21 12:04:02;;;;;;;60.33;28.02;;;;;;;;;;4891227;28;98482;-80
2023/01/21 12:06:29;;;;;;;56.83;27.90;;;;;;;;;;4891603;28;100312;-79
2023/01/21 12:08:58;;;;;;;62.45;30.42;;;;;;;;;;4891077;28;98210;-78
2023/01/21 12:11:26;;;;;;;56.35;28.58;;;;;;;;;;4886060;28;99727;-78
2023/01/21 12:14:06;;;;;;;61.80;28.80;;;;;;;;;;4891243;28;100099;-81
2023/01/21 12:16:32;;;;;;;78.15;34.80;;;;;;;;;;4891751;28;98288;-79
2023/01/21 12:19:15;;;;;;;74.25;27.02;;;;;;;;;;4891974;28;99748;-79
2023/01/21 12:22:02;;;;;;;60.95;27.70;;;;;;;;;;4890274;28;100106;-80
2023/01/21 12:24:47;;;;;;;66.57;29.15;;;;;;;;;;4886864;28;98665;-78
2023/01/21 12:27:20;;;;;;;70.90;31.13;;;;;;;;;;4894518;28;98730;-79
2023/01/21 12:29:52;;;;;;;71.63;31.58;;;;;;;;;;4896853;28;98330;-79
2023/01/21 12:32:21;;;;;;;58.00;25.05;;;;;;;;;;4892033;28;98801;-78
2023/01/21 12:34:52;;;;;;;65.32;28.83;;;;;;;;;;4882026;28;99042;-79
2023/01/21 12:37:22;;;;;;;94.38;48.35;;;;;;;;;;4891795;28;98282;-80
2023/01/21 12:39:49;;;;;;;81.97;39.90;;;;;;;;;;4896302;28;99400;-80
2023/01/21 12:42:21;;;;;;;63.65;30.25;;;;;;;;;;4889833;28;99424;-79
2023/01/21 12:44:48;;;;;;;;;;;;;;;;;;4895134;28;99438;-80
2023/01/21 12:47:28;;;;;;;52.22;24.73;;;;;;;;;;4893705;28;125947;-79
2023/01/21 12:50:00;;;;;;;51.10;23.42;;;;;;;;;;4890014;28;98695;-80
2023/01/21 12:52:27;;;;;;;;;;;;;;;;;;4891545;28;99569;-80
2023/01/21 12:55:00;;;;;;;56.30;23.40;;;;;;;;;;4888330;28;126455;-80
2023/01/21 12:57:33;;;;;;;59.40;26.80;;;;;;;;;;4891017;28;98398;-80
2023/01/21 13:00:03;;;;;;;58.17;27.40;;;;;;;;;;4889837;28;99997;-80
2023/01/21 13:02:33;;;;;;;64.93;28.00;;;;;;;;;;4889524;28;100162;-79
2023/01/21 13:05:12;;;;;;;67.00;28.38;;;;;;;;;;4889882;28;98282;-80
2023/01/21 13:07:42;;;;;;;58.20;25.17;;;;;;;;;;4889966;28;99308;-80
2023/01/21 13:10:11;;;;;;;56.55;26.00;;;;;;;;;;4891061;28;99520;-79
2023/01/21 13:12:38;;;;;;;49.30;23.70;;;;;;;;;;4890800;28;99259;-79
2023/01/21 13:15:10;;;;;;;58.78;25.73;;;;;;;;;;4890194;28;100241;-78
2023/01/21 13:17:38;;;;;;;56.22;24.65;;;;;;;;;;4890701;28;98386;-78
2023/01/21 13:20:18;;;;;;;58.88;26.40;;;;;;;;;;4890521;28;98762;-80
2023/01/21 13:22:53;;;;;;;57.90;27.70;;;;;;;;;;4889303;28;99956;-80
2023/01/21 13:25:34;;;;;;;53.33;24.48;;;;;;;;;;4889851;28;98940;-80
2023/01/21 13:28:20;;;;;;;58.42;25.83;;;;;;;;;;4889080;28;98913;-80
2023/01/21 13:30:49;;;;;;;55.78;25.65;;;;;;;;;;4879455;28;98993;-80
2023/01/21 13:33:23;;;;;;;57.67;26.60;;;;;;;;;;4892478;28;99066;-78
2023/01/21 13:36:03;;;;;;;59.10;24.98;;;;;;;;;;4888053;28;99028;-78
2023/01/21 13:38:29;;;;;;;48.22;21.13;;;;;;;;;;4885255;28;99874;-78
2023/01/21 13:41:05;;;;;;;54.63;24.98;;;;;;;;;;4888745;28;101544;-77
2023/01/21 13:43:31;;;;;;;52.38;23.90;;;;;;;;;;4889254;28;100248;-78
2023/01/21 13:46:09;;;;;;;45.55;19.67;;;;;;;;;;4889027;28;98387;-78
2023/01/21 13:48:54;;;;;;;49.35;23.08;;;;;;;;;;4889614;28;99468;-78
2023/01/21 13:51:23;;;;;;;55.80;25.00;;;;;;;;;;4888357;28;100152;-78
2023/01/21 13:53:52;;;;;;;51.03;24.83;;;;;;;;;;4889225;28;98803;-78
2023/01/21 13:56:19;;;;;;;55.47;25.90;;;;;;;;;;4890563;28;99689;-78
2023/01/21 13:58:48;;;;;;;45.58;21.55;;;;;;;;;;4888170;28;98309;-77
2023/01/21 14:01:27;;;;;;;48.90;24.20;;;;;;;;;;4888151;28;98727;-78
2023/01/21 14:04:20;;;;;;;52.30;23.13;;;;;;;;;;4890908;28;98897;-79
2023/01/21 14:06:51;;;;;;;45.90;22.45;;;;;;;;;;4873595;28;98399;-78
2023/01/21 14:09:23;;;;;;;47.05;23.52;;;;;;;;;;4872159;28;99677;-76
2023/01/21 14:12:06;;;;;;;46.67;21.95;;;;;;;;;;4877404;28;100392;-77
2023/01/21 14:14:41;;;;;;;50.00;24.85;;;;;;;;;;4890213;28;98176;-77
2023/01/21 14:17:24;;;;;;;43.45;20.05;;;;;;;;;;4891734;28;99160;-77
2023/01/21 14:20:12;;;;;;;40.90;21.55;;;;;;;;;;4899794;28;99259;-78
2023/01/21 14:22:57;;;;;;;46.97;21.48;;;;;;;;;;4896790;28;98869;-78
2023/01/21 14:25:26;;;;;;;43.50;21.77;;;;;;;;;;4896414;28;99447;-79
2023/01/21 14:28:02;;;;;;;49.58;22.48;;;;;;;;;;4895867;28;98309;-78
2023/01/21 14:30:43;;;;;;;43.65;22.67;;;;;;;;;;4896928;28;98753;-78